createdAt,value
2022-11-02T00:01:37.444Z,98.26
2022-11-02T00:04:03.803Z,97.71
2022-11-02T00:06:30.156Z,97.60
2022-11-02T00:08:56.477Z,97.59
2022-11-02T00:11:22.801Z,97.06
2022-11-02T00:13:49.147Z,97.14
2022-11-02T00:16:17.919Z,97.42
2022-11-02T00:18:47.429Z,97.29
2022-11-02T00:21:16.559Z,97.20
2022-11-02T00:23:43.125Z,97.17
2022-11-02T00:26:09.729Z,97.27
2022-11-02T00:28:36.133Z,97.46
2022-11-02T00:31:03.044Z,97.27
2022-11-02T00:33:29.437Z,96.73
2022-11-02T00:35:55.956Z,96.27
2022-11-02T00:38:22.284Z,95.87
2022-11-02T00:40:48.611Z,95.58
2022-11-02T00:43:14.927Z,95.10
2022-11-02T00:45:41.308Z,94.23
2022-11-02T00:48:07.791Z,94.07
2022-11-02T00:50:34.241Z,92.96
2022-11-02T00:53:00.555Z,92.64
2022-11-02T00:55:26.892Z,92.51
2022-11-02T00:57:54.032Z,92.42
2022-11-02T01:00:20.677Z,92.14
2022-11-02T01:02:47.145Z,92.24
2022-11-02T01:05:13.615Z,91.62
2022-11-02T01:07:40.216Z,91.29
2022-11-02T01:10:08.553Z,90.41
2022-11-02T01:12:38.308Z,92.00
2022-11-02T01:15:06.955Z,91.36
2022-11-02T01:17:33.467Z,92.43
2022-11-02T01:19:59.790Z,93.87
2022-11-02T01:22:26.101Z,94.39
2022-11-02T01:24:52.461Z,94.47
2022-11-02T01:27:18.776Z,95.21
2022-11-02T01:29:45.084Z,95.37
2022-11-02T01:32:11.384Z,94.38
2022-11-02T01:34:37.739Z,94.49
2022-11-02T01:37:04.068Z,93.99
2022-11-02T01:39:30.411Z,94.33
2022-11-02T01:41:56.846Z,93.90
2022-11-02T01:44:32.025Z,93.11
2022-11-02T01:47:03.317Z,93.66
2022-11-02T01:49:33.577Z,94.12
2022-11-02T01:52:07.898Z,94.63
2022-11-02T01:54:40.149Z,95.37
2022-11-02T01:57:09.953Z,95.16
2022-11-02T01:59:46.344Z,95.63
2022-11-02T02:02:20.323Z,95.71
2022-11-02T02:04:51.258Z,95.68
2022-11-02T02:07:18.999Z,95.94
2022-11-02T02:09:48.752Z,96.06
2022-11-02T02:12:17.803Z,95.65
2022-11-02T02:14:44.173Z,95.74
2022-11-02T02:17:37.431Z,95.93
2022-11-02T02:20:26.145Z,95.94
2022-11-02T02:23:07.549Z,96.09
2022-11-02T02:25:52.649Z,96.73
2022-11-02T02:28:40.521Z,96.54
2022-11-02T02:31:30.967Z,96.48
2022-11-02T02:34:03.352Z,96.16
2022-11-02T02:36:37.199Z,95.81
2022-11-02T02:39:15.925Z,95.89
2022-11-02T02:41:51.458Z,95.52
2022-11-02T02:44:22.872Z,95.62
2022-11-02T02:47:00.573Z,95.46
2022-11-02T02:49:37.855Z,95.56
2022-11-02T02:52:05.762Z,95.52
2022-11-02T02:54:46.424Z,95.56
2022-11-02T02:57:23.336Z,95.93
2022-11-02T02:59:49.900Z,95.72
2022-11-02T03:02:21.208Z,95.84
2022-11-02T03:04:47.874Z,95.66
2022-11-02T03:07:19.983Z,95.40
2022-11-02T03:09:50.829Z,95.70
2022-11-02T03:12:32.257Z,95.70
2022-11-02T03:15:20.076Z,95.17
2022-11-02T03:18:17.211Z,95.11
2022-11-02T03:21:34.373Z,95.01
2022-11-02T03:24:07.792Z,94.82
2022-11-02T03:26:39.872Z,94.70
2022-11-02T03:29:12.695Z,94.33
2022-11-02T03:31:57.737Z,94.51
2022-11-02T03:34:48.164Z,94.44
2022-11-02T03:37:22.198Z,94.35
2022-11-02T03:39:51.780Z,93.96
2022-11-02T03:42:23.688Z,93.81
2022-11-02T03:44:56.779Z,93.29
2022-11-02T03:47:25.993Z,93.70
2022-11-02T03:49:55.476Z,93.05
2022-11-02T03:52:26.260Z,93.07
2022-11-02T03:55:13.649Z,93.56
2022-11-02T03:57:49.161Z,92.35
2022-11-02T04:00:21.953Z,92.23
2022-11-02T04:02:53.657Z,92.11
2022-11-02T04:05:21.084Z,91.36
2022-11-02T04:08:10.810Z,91.34
2022-11-02T04:10:57.125Z,91.67
2022-11-02T04:13:42.030Z,91.35
2022-11-02T04:16:08.354Z,90.74
2022-11-02T04:18:53.079Z,89.96
2022-11-02T04:21:19.450Z,89.92
2022-11-02T04:24:04.113Z,89.48
2022-11-02T04:26:30.527Z,90.26
2022-11-02T04:28:56.847Z,90.46
2022-11-02T04:31:23.160Z,89.41
2022-11-02T04:33:49.460Z,88.82
2022-11-02T04:36:15.801Z,89.26
2022-11-02T04:38:42.195Z,89.90
2022-11-02T04:41:29.369Z,90.33
2022-11-02T04:43:56.237Z,89.15
2022-11-02T04:46:24.288Z,89.65
2022-11-02T04:48:50.888Z,89.37
2022-11-02T04:51:17.707Z,89.48
2022-11-02T04:53:44.053Z,89.57
2022-11-02T04:56:10.604Z,88.84
2022-11-02T04:58:37.058Z,89.32
2022-11-02T05:01:13.582Z,89.63
2022-11-02T05:03:40.384Z,89.70
2022-11-02T05:06:06.818Z,89.38
2022-11-02T05:08:33.254Z,90.04
2022-11-02T05:10:59.609Z,90.64
2022-11-02T05:13:26.653Z,91.88
2022-11-02T05:15:56.888Z,93.09
2022-11-02T05:18:24.179Z,93.59
2022-11-02T05:20:55.766Z,93.87
2022-11-02T05:23:23.053Z,93.82
2022-11-02T05:26:04.088Z,94.50
2022-11-02T05:28:32.006Z,94.67
2022-11-02T05:31:02.718Z,94.66
2022-11-02T05:33:31.022Z,94.71
2022-11-02T05:35:59.250Z,94.94
2022-11-02T05:38:26.745Z,94.98
2022-11-02T05:40:54.814Z,95.30
2022-11-02T05:43:21.436Z,95.33
2022-11-02T05:45:55.974Z,95.65
2022-11-02T05:48:22.773Z,95.46
2022-11-02T05:50:49.720Z,95.54
2022-11-02T05:53:16.460Z,95.72
2022-11-02T05:55:42.818Z,95.15
2022-11-02T05:58:09.165Z,95.18
2022-11-02T06:00:35.485Z,95.25
2022-11-02T06:03:02.130Z,95.06
2022-11-02T06:05:28.648Z,95.19
2022-11-02T06:07:58.861Z,95.11
2022-11-02T06:10:26.497Z,95.24
2022-11-02T06:13:00.973Z,94.79
2022-11-02T06:15:36.467Z,94.89
2022-11-02T06:18:02.843Z,94.78
2022-11-02T06:20:29.261Z,94.32
2022-11-02T06:22:55.601Z,94.52
2022-11-02T06:25:22.008Z,94.31
2022-11-02T06:27:58.826Z,94.09
2022-11-02T06:30:25.308Z,94.32
2022-11-02T06:32:53.724Z,94.43
2022-11-02T06:35:22.017Z,94.16
2022-11-02T06:37:48.721Z,94.37
2022-11-02T06:40:15.527Z,94.23
2022-11-02T06:42:45.202Z,94.24
2022-11-02T06:45:16.946Z,93.57
2022-11-02T06:47:43.286Z,93.98
2022-11-02T06:50:09.788Z,93.77
2022-11-02T06:52:44.157Z,93.75
2022-11-02T06:55:11.767Z,94.00
2022-11-02T06:57:39.125Z,93.79
2022-11-02T07:02:40.188Z,93.48
2022-11-02T07:05:06.818Z,93.99
2022-11-02T07:07:33.117Z,94.00
2022-11-02T07:09:59.498Z,93.33
2022-11-02T07:12:25.915Z,93.44
2022-11-02T07:14:52.247Z,93.32
2022-11-02T07:17:18.933Z,93.34
2022-11-02T07:19:45.335Z,93.41
2022-11-02T07:22:11.689Z,93.43
2022-11-02T07:24:38.009Z,92.70
2022-11-02T07:27:04.493Z,92.78
2022-11-02T07:29:30.806Z,92.54
2022-11-02T07:31:57.122Z,92.40
2022-11-02T07:34:23.420Z,92.34
2022-11-02T07:36:49.758Z,91.57
2022-11-02T07:39:16.154Z,90.14
2022-11-02T07:41:42.511Z,90.02
2022-11-02T07:44:09.766Z,88.95
2022-11-02T07:46:36.098Z,88.50
2022-11-02T07:49:02.411Z,88.60
2022-11-02T07:51:30.278Z,86.07
2022-11-02T07:53:56.615Z,85.45
2022-11-02T07:56:22.913Z,82.30
2022-11-02T07:58:49.244Z,82.01
2022-11-02T08:01:15.601Z,80.33
2022-11-02T08:03:41.965Z,78.88
2022-11-02T08:06:08.280Z,77.18
2022-11-02T08:08:34.602Z,76.42
2022-11-02T08:11:09.125Z,77.36
2022-11-02T08:13:37.385Z,77.53
2022-11-02T08:16:04.108Z,76.37
2022-11-02T08:18:31.046Z,76.56
2022-11-02T08:20:59.058Z,74.05
2022-11-02T08:23:26.387Z,72.35
2022-11-02T08:25:54.297Z,71.19
2022-11-02T08:28:23.717Z,72.69
2022-11-02T08:30:50.257Z,70.61
2022-11-02T08:33:18.409Z,69.71
2022-11-02T08:35:46.119Z,69.11
2022-11-02T08:38:13.509Z,72.30
2022-11-02T08:40:40.117Z,74.40
2022-11-02T08:43:11.624Z,72.50
2022-11-02T08:46:12.692Z,72.91
2022-11-02T08:48:26.746Z,75.93
2022-11-02T08:50:53.197Z,75.92
2022-11-02T08:53:19.530Z,73.67
2022-11-02T08:55:45.815Z,71.73
2022-11-02T08:58:12.127Z,72.32
2022-11-02T09:00:38.750Z,72.51
2022-11-02T09:03:12.412Z,74.74
2022-11-02T09:05:40.937Z,76.65
2022-11-02T09:08:11.389Z,76.16
2022-11-02T09:10:38.096Z,73.21
2022-11-02T09:13:07.974Z,70.54
2022-11-02T09:15:36.726Z,67.23
2022-11-02T09:18:04.493Z,66.30
2022-11-02T09:20:31.549Z,66.19
2022-11-02T09:22:57.870Z,65.82
2022-11-02T09:25:24.277Z,65.64
2022-11-02T09:27:55.787Z,64.34
2022-11-02T09:30:23.113Z,64.19
2022-11-02T09:33:00.269Z,63.14
2022-11-02T09:35:28.881Z,61.12
2022-11-02T09:37:55.555Z,59.47
2022-11-02T09:40:24.426Z,58.30
2022-11-02T09:43:05.583Z,60.73
2022-11-02T09:45:50.321Z,58.31
2022-11-02T09:48:27.088Z,59.83
2022-11-02T09:51:17.422Z,58.77
2022-11-02T09:53:48.554Z,59.52
2022-11-02T09:56:19.607Z,57.79
2022-11-02T09:58:53.323Z,56.95
2022-11-02T10:01:50.166Z,54.97
2022-11-02T10:04:44.025Z,58.28
2022-11-02T10:07:32.748Z,58.41
2022-11-02T10:10:23.292Z,58.81
2022-11-02T10:13:01.658Z,56.47
2022-11-02T10:15:41.050Z,59.23
2022-11-02T10:18:19.973Z,57.85
2022-11-02T10:20:50.739Z,56.44
2022-11-02T10:23:24.857Z,55.48
2022-11-02T10:25:51.789Z,55.43
2022-11-02T10:28:26.241Z,54.44
2022-11-02T10:30:54.345Z,53.59
2022-11-02T10:33:26.606Z,53.25
2022-11-02T10:36:16.998Z,54.49
2022-11-02T10:38:52.255Z,54.51
2022-11-02T10:41:39.920Z,54.39
2022-11-02T10:44:31.748Z,52.85
2022-11-02T10:47:04.371Z,53.06
2022-11-02T10:50:01.425Z,54.36
2022-11-02T10:52:38.233Z,51.27
2022-11-02T10:55:08.782Z,51.15
2022-11-02T10:57:39.496Z,51.37
2022-11-02T11:00:36.386Z,51.29
2022-11-02T11:03:12.282Z,52.23
2022-11-02T11:05:59.343Z,51.39
2022-11-02T11:08:35.559Z,50.22
2022-11-02T11:11:14.900Z,52.56
2022-11-02T11:16:39.631Z,51.77
2022-11-02T11:22:39.160Z,51.78
2022-11-02T11:25:28.366Z,52.23
2022-11-02T11:27:59.228Z,52.63
2022-11-02T11:30:54.227Z,53.94
2022-11-02T11:33:19.195Z,53.81
2022-11-02T11:35:49.993Z,52.59
2022-11-02T11:38:20.848Z,53.59
2022-11-02T11:40:53.893Z,49.69
2022-11-02T11:43:23.525Z,49.44
2022-11-02T11:46:07.333Z,52.11
2022-11-02T11:48:44.930Z,49.86
2022-11-02T11:51:35.229Z,49.57
2022-11-02T11:54:07.260Z,48.98
2022-11-02T11:56:33.931Z,48.46
2022-11-02T11:59:00.262Z,47.08
2022-11-02T12:01:26.653Z,50.87
2022-11-02T12:03:57.060Z,49.00
2022-11-02T12:06:33.811Z,49.00
2022-11-02T12:09:06.163Z,46.26
2022-11-02T12:11:55.726Z,46.31
2022-11-02T12:14:47.745Z,47.88
2022-11-02T12:17:27.729Z,48.24
2022-11-02T12:20:19.733Z,49.01
2022-11-02T12:23:19.675Z,53.36
2022-11-02T12:25:54.655Z,56.23
2022-11-02T12:28:45.081Z,58.63
2022-11-02T12:31:11.336Z,60.53
2022-11-02T12:33:56.413Z,60.89
2022-11-02T12:37:09.826Z,62.14
2022-11-02T12:39:40.522Z,61.45
2022-11-02T12:42:19.018Z,63.36
2022-11-02T12:45:04.143Z,62.12
2022-11-02T12:47:51.641Z,62.32
2022-11-02T12:50:29.899Z,62.12
2022-11-02T12:53:28.974Z,62.47
2022-11-02T12:55:59.802Z,61.52
2022-11-02T12:58:29.813Z,60.83
2022-11-02T13:01:13.304Z,62.06
2022-11-02T13:04:09.532Z,62.10
2022-11-02T13:06:43.834Z,62.35
2022-11-02T13:09:25.057Z,62.14
2022-11-02T13:11:59.025Z,61.93
2022-11-02T13:14:29.078Z,62.11
2022-11-02T13:17:24.007Z,62.60
2022-11-02T13:19:55.906Z,61.67
2022-11-02T13:22:28.456Z,61.91
2022-11-02T13:25:05.442Z,62.18
2022-11-02T13:27:39.250Z,62.67
2022-11-02T13:30:17.790Z,62.46
2022-11-02T13:32:56.614Z,61.81
2022-11-02T13:35:34.861Z,62.61
2022-11-02T13:38:18.398Z,62.63
2022-11-02T13:40:47.141Z,62.01
2022-11-02T13:43:19.608Z,62.95
2022-11-02T13:46:07.866Z,62.85
2022-11-02T13:48:52.266Z,63.81
2022-11-02T13:51:36.433Z,63.71
2022-11-02T13:54:17.647Z,62.61
2022-11-02T13:56:45.627Z,63.36
2022-11-02T13:59:26.113Z,64.31
2022-11-02T14:01:55.268Z,63.55
2022-11-02T14:04:22.458Z,64.49
2022-11-02T14:07:02.656Z,65.02
2022-11-02T14:09:42.131Z,65.68
2022-11-02T14:12:17.706Z,67.36
2022-11-02T14:14:45.313Z,67.32
2022-11-02T14:17:17.493Z,68.12
2022-11-02T14:19:43.757Z,67.80
2022-11-02T14:22:13.542Z,67.55
2022-11-02T14:24:40.703Z,68.66
2022-11-02T14:27:12.827Z,68.68
2022-11-02T14:29:42.254Z,68.82
2022-11-02T14:32:18.854Z,69.46
2022-11-02T14:35:09.929Z,70.03
2022-11-02T14:38:05.635Z,70.76
2022-11-02T14:40:50.540Z,70.27
2022-11-02T14:43:56.389Z,70.40
2022-11-02T14:46:53.330Z,69.94
2022-11-02T14:49:37.859Z,70.37
2022-11-02T14:52:24.801Z,69.75
2022-11-02T14:54:59.218Z,71.04
2022-11-02T14:57:34.772Z,70.61
2022-11-02T15:00:18.283Z,70.58
2022-11-02T15:02:45.627Z,70.74
2022-11-02T15:05:22.741Z,70.47
2022-11-02T15:07:54.641Z,70.54
2022-11-02T15:10:20.900Z,71.45
2022-11-02T15:12:48.444Z,72.04
2022-11-02T15:15:31.447Z,72.54
2022-11-02T15:17:57.692Z,73.17
2022-11-02T15:20:27.341Z,74.25
2022-11-02T15:22:58.502Z,74.14
2022-11-02T15:25:31.220Z,74.12
2022-11-02T15:28:05.709Z,74.81
2022-11-02T15:30:33.081Z,75.18
2022-11-02T15:33:04.254Z,74.90
2022-11-02T15:35:34.698Z,75.25
2022-11-02T15:38:17.083Z,75.24
2022-11-02T15:40:53.435Z,75.41
2022-11-02T15:43:37.621Z,75.73
2022-11-02T15:46:32.824Z,76.21
2022-11-02T15:49:26.452Z,75.86
2022-11-02T15:52:12.956Z,76.33
2022-11-02T15:55:18.038Z,76.26
2022-11-02T15:57:56.897Z,76.69
2022-11-02T16:00:30.285Z,77.26
2022-11-02T16:03:05.339Z,77.00
2022-11-02T16:05:48.250Z,77.05
2022-11-02T16:08:30.797Z,77.33
2022-11-02T16:11:17.336Z,77.97
2022-11-02T16:14:03.258Z,78.28
2022-11-02T16:16:35.517Z,79.11
2022-11-02T16:19:02.269Z,79.13
2022-11-02T16:21:28.578Z,79.20
2022-11-02T16:23:57.516Z,79.36
2022-11-02T16:26:27.670Z,79.32
2022-11-02T16:28:56.864Z,79.34
2022-11-02T16:31:30.490Z,79.88
2022-11-02T16:34:13.512Z,79.62
2022-11-02T16:36:40.062Z,79.98
2022-11-02T16:39:16.499Z,80.20
2022-11-02T16:41:48.328Z,80.08
2022-11-02T16:44:18.477Z,80.89
2022-11-02T16:46:47.925Z,80.88
2022-11-02T16:49:18.560Z,80.68
2022-11-02T16:51:52.713Z,81.31
2022-11-02T16:54:25.692Z,81.05
2022-11-02T16:56:53.119Z,80.93
2022-11-02T16:59:21.275Z,80.85
2022-11-02T17:01:48.043Z,80.53
2022-11-02T17:04:14.563Z,79.86
2022-11-02T17:06:41.982Z,79.77
2022-11-02T17:09:23.713Z,79.14
2022-11-02T17:11:51.858Z,78.10
2022-11-02T17:14:22.931Z,77.84
2022-11-02T17:17:06.773Z,77.45
2022-11-02T17:19:38.874Z,76.95
2022-11-02T17:22:29.133Z,77.13
2022-11-02T17:25:19.629Z,77.01
2022-11-02T17:27:46.181Z,76.66
2022-11-02T17:30:34.392Z,76.42
2022-11-02T17:33:09.628Z,76.19
2022-11-02T17:35:36.638Z,76.28
2022-11-02T17:38:03.612Z,76.33
2022-11-02T17:40:30.365Z,77.44
2022-11-02T17:42:59.299Z,77.66
2022-11-02T17:45:28.282Z,77.34
2022-11-02T17:47:56.331Z,77.20
2022-11-02T17:50:24.150Z,77.95
2022-11-02T17:52:50.889Z,77.98
2022-11-02T17:55:23.105Z,78.16
2022-11-02T17:57:50.006Z,78.47
2022-11-02T18:00:17.706Z,78.89
2022-11-02T18:02:51.719Z,78.93
2022-11-02T18:05:24.289Z,78.64
2022-11-02T18:07:51.375Z,78.01
2022-11-02T18:10:29.249Z,78.00
2022-11-02T18:12:55.999Z,78.09
2022-11-02T18:15:28.220Z,77.48
2022-11-02T18:17:59.191Z,77.33
2022-11-02T18:20:27.991Z,76.78
2022-11-02T18:22:55.619Z,76.96
2022-11-02T18:25:21.981Z,76.27
2022-11-02T18:27:48.481Z,76.46
2022-11-02T18:30:16.648Z,76.25
2022-11-02T18:32:45.342Z,76.66
2022-11-02T18:35:17.262Z,76.18
2022-11-02T18:37:43.896Z,75.51
2022-11-02T18:40:13.058Z,75.93
2022-11-02T18:42:40.612Z,75.88
2022-11-02T18:45:08.145Z,75.03
2022-11-02T18:47:34.818Z,75.91
2022-11-02T18:50:01.624Z,75.98
2022-11-02T18:52:32.194Z,76.23
2022-11-02T18:55:03.365Z,76.56
2022-11-02T18:57:29.772Z,75.05
2022-11-02T18:59:56.162Z,75.55
2022-11-02T19:02:22.599Z,75.58
2022-11-02T19:04:48.929Z,75.28
2022-11-02T19:07:33.809Z,75.69
2022-11-02T19:10:03.606Z,76.26
2022-11-02T19:12:30.919Z,76.17
2022-11-02T19:14:57.288Z,75.61
2022-11-02T19:17:25.389Z,75.66
2022-11-02T19:19:52.152Z,76.34
2022-11-02T19:22:20.867Z,76.24
2022-11-02T19:24:47.562Z,76.17
2022-11-02T19:27:15.915Z,75.82
2022-11-02T19:29:42.379Z,76.12
2022-11-02T19:32:09.018Z,75.26
2022-11-02T19:34:36.715Z,75.33
2022-11-02T19:37:06.949Z,75.17
2022-11-02T19:39:33.439Z,75.45
2022-11-02T19:41:59.745Z,75.68
2022-11-02T19:44:26.447Z,75.14
2022-11-02T19:46:52.739Z,75.04
2022-11-02T19:49:19.070Z,74.78
2022-11-02T19:51:45.402Z,74.74
2022-11-02T19:54:11.884Z,75.00
2022-11-02T19:56:38.559Z,74.37
2022-11-02T19:59:05.833Z,75.74
2022-11-02T20:01:37.578Z,75.70
2022-11-02T20:04:04.732Z,75.78
2022-11-02T20:06:37.307Z,75.08
2022-11-02T20:09:05.912Z,74.62
2022-11-02T20:11:32.640Z,75.49
2022-11-02T20:14:00.915Z,75.27
2022-11-02T20:16:27.654Z,75.38
2022-11-02T20:18:54.781Z,75.48
2022-11-02T20:21:29.890Z,75.56
2022-11-02T20:23:59.117Z,75.80
2022-11-02T20:26:31.758Z,75.82
2022-11-02T20:28:59.841Z,76.10
2022-11-02T20:31:33.152Z,76.23
2022-11-02T20:34:00.650Z,76.49
2022-11-02T20:36:27.378Z,76.49
2022-11-02T20:38:54.320Z,76.50
2022-11-02T20:41:22.696Z,76.63
2022-11-02T20:43:50.399Z,76.56
2022-11-02T20:49:20.004Z,76.33
2022-11-02T20:51:49.970Z,76.50
2022-11-02T20:54:18.219Z,77.02
2022-11-02T20:56:44.508Z,76.10
2022-11-02T20:59:10.823Z,76.89
2022-11-02T21:01:37.189Z,76.61
2022-11-02T21:04:03.846Z,76.84
2022-11-02T21:06:30.176Z,76.39
2022-11-02T21:08:56.797Z,76.91
2022-11-02T21:11:41.590Z,77.41
2022-11-02T21:14:08.009Z,77.55
2022-11-02T21:16:34.308Z,77.47
2022-11-02T21:19:00.736Z,77.48
2022-11-02T21:21:27.151Z,77.86
2022-11-02T21:23:55.351Z,77.82
2022-11-02T21:26:21.829Z,77.62
2022-11-02T21:28:48.214Z,77.88
2022-11-02T21:31:20.328Z,78.14
2022-11-02T21:33:48.110Z,78.13
2022-11-02T21:36:16.046Z,77.88
2022-11-02T21:38:43.751Z,77.89
2022-11-02T21:41:14.897Z,78.50
2022-11-02T21:43:41.213Z,78.19
2022-11-02T21:46:07.611Z,78.13
2022-11-02T21:48:35.408Z,78.14
2022-11-02T21:51:10.306Z,77.94
2022-11-02T21:53:38.719Z,77.92
2022-11-02T21:56:10.807Z,78.46
2022-11-02T21:58:42.872Z,78.81
2022-11-02T22:01:33.829Z,78.60
2022-11-02T22:04:00.488Z,78.73
2022-11-02T22:06:30.970Z,79.08
2022-11-02T22:08:58.918Z,79.43
2022-11-02T22:11:29.438Z,79.46
2022-11-02T22:13:57.845Z,79.26
2022-11-02T22:16:34.735Z,79.27
2022-11-02T22:19:06.664Z,79.65
2022-11-02T22:21:42.571Z,79.67
2022-11-02T22:24:09.652Z,80.03
2022-11-02T22:26:37.640Z,79.96
2022-11-02T22:29:04.729Z,80.29
2022-11-02T22:31:33.691Z,80.46
2022-11-02T22:34:01.893Z,80.86
2022-11-02T22:36:30.537Z,80.84
2022-11-02T22:38:58.412Z,81.24
2022-11-02T22:41:34.064Z,81.04
2022-11-02T22:44:22.037Z,81.38
2022-11-02T22:46:50.485Z,81.49
2022-11-02T22:49:19.168Z,81.43
2022-11-02T22:51:49.531Z,81.63
2022-11-02T22:54:18.247Z,82.25
2022-11-02T22:56:46.666Z,82.31
2022-11-02T22:59:13.549Z,81.99
2022-11-02T23:01:40.744Z,82.44
2022-11-02T23:04:07.927Z,82.52
2022-11-02T23:06:34.715Z,82.35
2022-11-02T23:09:01.364Z,82.46
2022-11-02T23:11:35.941Z,82.64
2022-11-02T23:14:11.283Z,82.69
2022-11-02T23:16:40.557Z,82.68
2022-11-02T23:19:44.813Z,82.93
2022-11-02T23:22:30.578Z,82.96
2022-11-02T23:25:10.851Z,82.94
2022-11-02T23:27:58.956Z,83.09
2022-11-02T23:30:46.375Z,82.48
2022-11-02T23:33:12.773Z,82.29
2022-11-02T23:35:57.679Z,82.23
2022-11-02T23:38:24.092Z,81.89
2022-11-02T23:40:54.669Z,81.69
2022-11-02T23:43:20.970Z,81.55
2022-11-02T23:45:47.307Z,81.06
2022-11-02T23:48:13.664Z,81.16
2022-11-02T23:50:58.366Z,81.08
2022-11-02T23:53:43.298Z,80.42
2022-11-02T23:56:35.267Z,80.63
2022-11-02T23:59:07.481Z,80.96
